createdAt,value
2019-01-30T00:00:29.552Z,60.89
2019-01-30T00:01:31.122Z,60.63
2019-01-30T00:02:31.983Z,60.45
2019-01-30T00:03:32.941Z,60.05
2019-01-30T00:04:34.014Z,60.56
2019-01-30T00:05:34.884Z,60.59
2019-01-30T00:06:35.744Z,60.31
2019-01-30T00:07:36.597Z,60.48
2019-01-30T00:08:37.454Z,60.33
2019-01-30T00:09:38.344Z,60.62
2019-01-30T00:10:39.196Z,59.92
2019-01-30T00:11:40.052Z,60.49
2019-01-30T00:12:40.950Z,60.99
2019-01-30T00:13:41.841Z,61.17
2019-01-30T00:14:42.697Z,61.41
2019-01-30T00:15:43.554Z,61.25
2019-01-30T00:16:44.412Z,61.90
2019-01-30T00:17:45.261Z,61.71
2019-01-30T00:18:46.125Z,61.34
2019-01-30T00:19:46.972Z,61.21
2019-01-30T00:20:47.824Z,61.43
2019-01-30T00:21:48.728Z,61.94
2019-01-30T00:22:49.587Z,61.81
2019-01-30T00:23:50.448Z,61.88
2019-01-30T00:24:51.310Z,62.12
2019-01-30T00:25:52.165Z,62.21
2019-01-30T00:26:53.046Z,62.31
2019-01-30T00:27:53.900Z,62.00
2019-01-30T00:28:54.764Z,61.49
2019-01-30T00:30:03.823Z,61.42
2019-01-30T00:30:58.414Z,61.50
2019-01-30T00:31:59.275Z,61.56
2019-01-30T00:33:00.126Z,61.36
2019-01-30T00:34:01.079Z,62.22
2019-01-30T00:35:02.544Z,62.21
2019-01-30T00:36:03.552Z,61.92
2019-01-30T00:37:04.420Z,61.77
2019-01-30T00:38:05.281Z,62.20
2019-01-30T00:39:06.137Z,62.30
2019-01-30T00:40:09.892Z,62.19
2019-01-30T00:41:10.812Z,62.04
2019-01-30T00:42:11.675Z,61.98
2019-01-30T00:43:12.539Z,62.15
2019-01-30T00:44:13.398Z,62.27
2019-01-30T00:45:15.953Z,62.31
2019-01-30T00:46:16.876Z,62.40
2019-01-30T00:47:17.713Z,62.61
2019-01-30T00:48:18.564Z,62.46
2019-01-30T00:50:38.137Z,62.24
2019-01-30T00:52:17.202Z,62.04
2019-01-30T00:53:18.069Z,61.85
2019-01-30T00:54:18.919Z,62.33
2019-01-30T00:55:19.781Z,62.43
2019-01-30T00:56:20.644Z,62.60
2019-01-30T00:57:21.545Z,62.89
2019-01-30T00:58:22.405Z,62.68
2019-01-30T00:59:23.265Z,62.77
2019-01-30T01:00:26.232Z,62.71
2019-01-30T01:01:27.091Z,62.83
2019-01-30T01:02:27.987Z,62.69
2019-01-30T01:03:28.852Z,62.73
2019-01-30T01:04:29.726Z,62.80
2019-01-30T01:05:30.584Z,62.79
2019-01-30T01:06:31.436Z,62.79
2019-01-30T01:07:32.330Z,62.88
2019-01-30T01:08:33.289Z,63.13
2019-01-30T01:09:34.188Z,63.00
2019-01-30T01:10:34.997Z,62.97
2019-01-30T01:11:35.865Z,62.95
2019-01-30T01:12:36.744Z,62.81
2019-01-30T01:13:37.588Z,62.67
2019-01-30T01:14:38.446Z,62.79
2019-01-30T01:15:39.452Z,63.00
2019-01-30T01:16:40.314Z,62.77
2019-01-30T01:17:41.174Z,62.55
2019-01-30T01:18:42.022Z,62.93
2019-01-30T01:19:42.978Z,62.83
2019-01-30T01:20:43.986Z,62.68
2019-01-30T01:21:44.840Z,62.71
2019-01-30T01:22:45.696Z,62.89
2019-01-30T01:23:46.548Z,62.46
2019-01-30T01:24:47.410Z,62.82
2019-01-30T01:25:48.278Z,62.94
2019-01-30T01:26:49.149Z,62.96
2019-01-30T01:27:50.003Z,63.03
2019-01-30T01:28:50.858Z,63.71
2019-01-30T01:29:51.717Z,63.52
2019-01-30T01:30:52.614Z,63.37
2019-01-30T01:31:53.478Z,63.47
2019-01-30T01:32:54.372Z,63.60
2019-01-30T01:33:55.260Z,63.36
2019-01-30T01:34:56.116Z,62.38
2019-01-30T01:35:57.095Z,63.02
2019-01-30T01:36:59.859Z,63.35
2019-01-30T01:38:00.827Z,63.57
2019-01-30T01:39:01.783Z,62.68
2019-01-30T01:40:08.367Z,63.17
2019-01-30T01:41:09.240Z,63.33
2019-01-30T01:42:10.102Z,63.50
2019-01-30T01:43:10.952Z,63.46
2019-01-30T01:44:11.803Z,63.43
2019-01-30T01:45:18.422Z,63.50
2019-01-30T01:46:19.301Z,63.42
2019-01-30T01:47:20.175Z,63.45
2019-01-30T01:48:21.061Z,63.50
2019-01-30T01:49:21.930Z,63.78
2019-01-30T01:50:22.772Z,63.99
2019-01-30T01:51:23.637Z,63.83
2019-01-30T01:52:24.499Z,63.95
2019-01-30T01:54:00.810Z,64.15
2019-01-30T01:55:01.779Z,63.91
2019-01-30T01:56:02.740Z,63.64
2019-01-30T01:57:03.686Z,63.75
2019-01-30T01:58:04.692Z,63.76
2019-01-30T01:59:05.592Z,63.81
2019-01-30T02:00:09.852Z,64.21
2019-01-30T02:01:10.703Z,64.12
2019-01-30T02:02:11.562Z,64.19
2019-01-30T02:03:12.407Z,64.25
2019-01-30T02:04:13.276Z,64.03
2019-01-30T02:05:15.933Z,63.86
2019-01-30T02:06:16.796Z,63.86
2019-01-30T02:07:17.716Z,64.05
2019-01-30T02:08:18.608Z,64.14
2019-01-30T02:09:19.470Z,64.18
2019-01-30T02:10:24.103Z,63.97
2019-01-30T02:11:24.994Z,64.00
2019-01-30T02:12:25.842Z,64.33
2019-01-30T02:13:26.734Z,64.14
2019-01-30T02:14:27.578Z,64.10
2019-01-30T02:15:28.443Z,64.24
2019-01-30T02:16:29.302Z,64.05
2019-01-30T02:17:30.158Z,64.20
2019-01-30T02:18:31.060Z,64.32
2019-01-30T02:19:31.922Z,64.25
2019-01-30T02:20:33.885Z,64.19
2019-01-30T02:21:34.736Z,64.02
2019-01-30T02:22:35.586Z,63.85
2019-01-30T02:23:36.470Z,63.91
2019-01-30T02:24:37.318Z,64.41
2019-01-30T02:25:38.176Z,64.37
2019-01-30T02:26:39.028Z,64.17
2019-01-30T02:27:40.003Z,64.92
2019-01-30T02:28:40.886Z,65.57
2019-01-30T02:29:41.756Z,65.58
2019-01-30T02:30:47.473Z,65.90
2019-01-30T02:31:45.486Z,66.32
2019-01-30T02:32:46.336Z,66.31
2019-01-30T02:33:49.108Z,66.52
2019-01-30T02:34:49.981Z,66.69
2019-01-30T02:35:50.932Z,66.31
2019-01-30T02:36:54.927Z,66.27
2019-01-30T02:37:55.784Z,66.20
2019-01-30T02:38:56.802Z,66.19
2019-01-30T02:39:57.695Z,66.18
2019-01-30T02:40:58.548Z,66.24
2019-01-30T02:41:59.412Z,66.18
2019-01-30T02:43:00.272Z,65.90
2019-01-30T02:44:03.210Z,65.97
2019-01-30T02:45:09.940Z,65.64
2019-01-30T02:46:10.800Z,66.12
2019-01-30T02:47:11.656Z,66.14
2019-01-30T02:48:12.529Z,65.94
2019-01-30T02:49:13.396Z,65.96
2019-01-30T02:50:16.286Z,65.69
2019-01-30T02:51:17.148Z,65.56
2019-01-30T02:52:18.012Z,65.79
2019-01-30T02:53:18.872Z,65.92
2019-01-30T02:54:19.738Z,66.04
2019-01-30T02:55:20.661Z,65.75
2019-01-30T02:56:21.502Z,65.66
2019-01-30T02:57:22.356Z,66.06
2019-01-30T02:58:23.218Z,66.25
2019-01-30T02:59:24.084Z,66.07
2019-01-30T03:00:27.086Z,66.10
2019-01-30T03:01:28.046Z,66.02
2019-01-30T03:02:28.920Z,66.17
2019-01-30T03:03:29.776Z,65.94
2019-01-30T03:04:30.633Z,66.03
2019-01-30T03:05:31.622Z,65.88
2019-01-30T03:06:32.479Z,65.83
2019-01-30T03:07:33.439Z,66.11
2019-01-30T03:08:34.322Z,66.07
2019-01-30T03:09:35.197Z,65.97
2019-01-30T03:10:36.058Z,65.66
2019-01-30T03:11:36.913Z,66.52
2019-01-30T03:12:37.766Z,66.89
2019-01-30T03:13:38.647Z,67.66
2019-01-30T03:14:39.498Z,67.55
2019-01-30T03:15:40.356Z,66.99
2019-01-30T03:16:41.255Z,66.63
2019-01-30T03:17:42.119Z,66.68
2019-01-30T03:18:42.982Z,66.63
2019-01-30T03:19:43.838Z,66.54
2019-01-30T03:20:44.803Z,66.76
2019-01-30T03:21:45.760Z,66.67
2019-01-30T03:22:46.614Z,66.34
2019-01-30T03:23:47.484Z,66.46
2019-01-30T03:24:48.342Z,66.48
2019-01-30T03:25:49.245Z,66.96
2019-01-30T03:26:50.103Z,66.59
2019-01-30T03:27:50.956Z,66.61
2019-01-30T03:28:51.813Z,66.56
2019-01-30T03:29:52.668Z,66.37
2019-01-30T03:30:53.559Z,66.43
2019-01-30T03:31:54.402Z,66.48
2019-01-30T03:32:55.357Z,66.74
2019-01-30T03:33:56.226Z,67.20
2019-01-30T03:34:57.080Z,67.54
2019-01-30T03:35:57.996Z,67.26
2019-01-30T03:36:58.840Z,66.58
2019-01-30T03:37:59.827Z,66.29
2019-01-30T03:39:00.664Z,66.36
2019-01-30T03:40:01.516Z,66.49
2019-01-30T03:41:02.416Z,65.97
2019-01-30T03:42:03.389Z,65.85
2019-01-30T03:43:04.240Z,65.55
2019-01-30T03:44:05.090Z,65.32
2019-01-30T03:45:08.549Z,65.20
2019-01-30T03:46:09.445Z,65.44
2019-01-30T03:47:10.310Z,65.68
2019-01-30T03:48:11.164Z,66.42
2019-01-30T03:49:12.026Z,66.26
2019-01-30T03:50:13.983Z,65.85
2019-01-30T03:51:14.884Z,65.90
2019-01-30T03:52:15.732Z,65.92
2019-01-30T03:53:16.588Z,66.16
2019-01-30T03:54:17.457Z,66.51
2019-01-30T03:55:19.357Z,67.17
2019-01-30T03:56:20.233Z,67.11
2019-01-30T03:57:21.087Z,66.60
2019-01-30T03:58:21.949Z,66.50
2019-01-30T03:59:22.800Z,66.68
2019-01-30T04:00:25.104Z,66.75
2019-01-30T04:01:26.898Z,67.44
2019-01-30T04:02:27.936Z,66.89
2019-01-30T04:03:28.819Z,66.47
2019-01-30T04:04:29.674Z,66.62
2019-01-30T04:05:30.588Z,66.58
2019-01-30T04:06:31.442Z,66.50
2019-01-30T04:07:32.299Z,66.85
2019-01-30T04:08:33.261Z,66.88
2019-01-30T04:09:34.143Z,67.03
2019-01-30T04:10:35.018Z,67.28
2019-01-30T04:11:35.879Z,67.05
2019-01-30T04:12:36.718Z,66.95
2019-01-30T04:13:37.579Z,66.95
2019-01-30T04:14:38.477Z,67.20
2019-01-30T04:15:39.334Z,67.26
2019-01-30T04:16:40.199Z,67.34
2019-01-30T04:17:41.063Z,67.30
2019-01-30T04:18:41.912Z,67.16
2019-01-30T04:19:42.778Z,67.29
2019-01-30T04:20:43.628Z,67.30
2019-01-30T04:21:44.492Z,67.21
2019-01-30T04:22:45.386Z,67.25
2019-01-30T04:23:46.252Z,67.32
2019-01-30T04:24:47.104Z,67.27
2019-01-30T04:25:47.958Z,67.14
2019-01-30T04:26:48.830Z,67.06
2019-01-30T04:27:49.716Z,67.24
2019-01-30T04:28:50.586Z,67.14
2019-01-30T04:29:51.437Z,67.05
2019-01-30T04:30:52.296Z,67.16
2019-01-30T04:31:53.161Z,67.06
2019-01-30T04:32:54.052Z,67.39
2019-01-30T04:33:54.946Z,68.12
2019-01-30T04:34:55.818Z,68.76
2019-01-30T04:35:56.901Z,68.45
2019-01-30T04:36:57.836Z,68.77
2019-01-30T04:37:58.713Z,68.37
2019-01-30T04:38:59.582Z,68.37
2019-01-30T04:40:00.430Z,67.90
2019-01-30T04:41:01.342Z,67.65
2019-01-30T04:42:02.335Z,67.43
2019-01-30T04:43:03.402Z,67.18
2019-01-30T04:44:04.311Z,67.64
2019-01-30T04:45:08.967Z,67.40
2019-01-30T04:46:09.828Z,67.31
2019-01-30T04:47:10.698Z,67.10
2019-01-30T04:48:11.561Z,67.09
2019-01-30T04:49:12.434Z,67.43
2019-01-30T04:50:13.285Z,67.65
2019-01-30T04:51:14.138Z,67.23
2019-01-30T04:52:14.998Z,66.88
2019-01-30T04:53:15.862Z,66.57
2019-01-30T04:54:16.807Z,66.21
2019-01-30T04:55:17.718Z,66.54
2019-01-30T04:56:18.613Z,66.55
2019-01-30T04:57:19.429Z,66.75
2019-01-30T04:58:20.290Z,66.88
2019-01-30T04:59:24.523Z,66.51
2019-01-30T05:00:25.440Z,66.73
2019-01-30T05:01:26.293Z,66.62
2019-01-30T05:02:27.140Z,66.47
2019-01-30T05:03:28.000Z,66.24
2019-01-30T05:04:28.865Z,65.96
2019-01-30T05:05:29.774Z,66.24
2019-01-30T05:06:30.621Z,65.89
2019-01-30T05:07:31.487Z,65.68
2019-01-30T05:08:32.369Z,65.93
2019-01-30T05:09:33.338Z,65.85
2019-01-30T05:10:34.219Z,66.14
2019-01-30T05:11:35.082Z,66.07
2019-01-30T05:12:36.055Z,65.98
2019-01-30T05:13:36.957Z,65.90
2019-01-30T05:14:37.814Z,65.96
2019-01-30T05:15:38.663Z,65.94
2019-01-30T05:16:39.535Z,66.06
2019-01-30T05:17:40.395Z,65.81
2019-01-30T05:18:41.295Z,65.86
2019-01-30T05:19:42.156Z,65.91
2019-01-30T05:20:43.011Z,65.52
2019-01-30T05:21:43.913Z,65.39
2019-01-30T05:22:44.784Z,65.64
2019-01-30T05:23:45.646Z,65.65
2019-01-30T05:24:46.524Z,65.88
2019-01-30T05:25:47.353Z,66.06
2019-01-30T05:26:48.255Z,66.19
2019-01-30T05:27:49.125Z,66.29
2019-01-30T05:28:49.978Z,66.38
2019-01-30T05:29:50.841Z,66.57
2019-01-30T05:30:51.693Z,66.48
2019-01-30T05:32:00.858Z,66.69
2019-01-30T05:32:55.358Z,67.21
2019-01-30T05:33:56.213Z,67.09
2019-01-30T05:34:57.075Z,66.60
2019-01-30T05:36:00.141Z,66.57
2019-01-30T05:37:03.855Z,66.28
2019-01-30T05:38:04.715Z,66.25
2019-01-30T05:39:06.818Z,66.45
2019-01-30T05:40:11.275Z,66.25
2019-01-30T05:41:12.136Z,66.47
2019-01-30T05:42:13.111Z,66.27
2019-01-30T05:43:13.965Z,66.37
2019-01-30T05:44:14.963Z,66.36
2019-01-30T05:45:16.227Z,66.19
2019-01-30T05:46:17.111Z,65.90
2019-01-30T05:47:17.975Z,66.15
2019-01-30T05:48:18.857Z,66.37
2019-01-30T05:49:19.749Z,66.09
2019-01-30T05:50:20.614Z,66.02
2019-01-30T05:51:21.472Z,65.95
2019-01-30T05:52:22.320Z,66.16
2019-01-30T05:53:23.176Z,66.05
2019-01-30T05:54:24.087Z,66.01
2019-01-30T05:55:24.955Z,65.75
2019-01-30T05:56:25.815Z,65.47
2019-01-30T05:57:26.681Z,65.59
2019-01-30T05:58:27.537Z,65.75
2019-01-30T05:59:28.437Z,65.62
2019-01-30T06:00:33.516Z,65.47
2019-01-30T06:01:34.389Z,65.24
2019-01-30T06:02:35.257Z,64.98
2019-01-30T06:03:36.111Z,65.05
2019-01-30T06:04:37.002Z,64.27
2019-01-30T06:05:37.849Z,64.74
2019-01-30T06:06:38.711Z,65.09
2019-01-30T06:07:39.565Z,64.89
2019-01-30T06:08:40.478Z,65.02
2019-01-30T06:09:42.055Z,64.98
2019-01-30T06:10:42.928Z,64.95
2019-01-30T06:11:43.781Z,64.94
2019-01-30T06:12:44.635Z,64.90
2019-01-30T06:13:45.539Z,64.79
2019-01-30T06:14:46.400Z,64.73
2019-01-30T06:15:47.255Z,64.72
2019-01-30T06:16:48.122Z,64.94
2019-01-30T06:17:48.971Z,65.36
2019-01-30T06:18:49.871Z,65.71
2019-01-30T06:19:50.735Z,65.27
2019-01-30T06:20:51.583Z,65.08
2019-01-30T06:21:52.442Z,65.08
2019-01-30T06:22:54.206Z,65.75
2019-01-30T06:23:55.108Z,65.76
2019-01-30T06:24:55.973Z,65.96
2019-01-30T06:25:56.837Z,65.76
2019-01-30T06:26:57.698Z,65.25
2019-01-30T06:27:58.562Z,65.35
2019-01-30T06:28:59.461Z,65.21
2019-01-30T06:30:00.368Z,64.91
2019-01-30T06:31:01.216Z,64.87
2019-01-30T06:32:02.073Z,65.07
2019-01-30T06:33:03.061Z,65.25
2019-01-30T06:34:03.999Z,65.49
2019-01-30T06:35:04.844Z,65.42
2019-01-30T06:36:05.694Z,65.78
2019-01-30T06:37:06.551Z,65.91
2019-01-30T06:38:07.411Z,65.41
2019-01-30T06:39:08.433Z,65.04
2019-01-30T06:40:13.105Z,64.72
2019-01-30T06:41:13.981Z,64.79
2019-01-30T06:42:14.836Z,64.92
2019-01-30T06:43:15.692Z,65.06
2019-01-30T06:44:16.589Z,64.90
2019-01-30T06:45:17.457Z,64.78
2019-01-30T06:46:18.317Z,65.82
2019-01-30T06:47:19.176Z,65.35
2019-01-30T06:48:20.057Z,65.26
2019-01-30T06:49:21.005Z,64.80
2019-01-30T06:50:21.871Z,64.81
2019-01-30T06:51:22.793Z,64.84
2019-01-30T06:52:23.642Z,64.97
2019-01-30T06:53:26.415Z,64.64
2019-01-30T06:54:27.335Z,65.58
2019-01-30T06:55:28.206Z,65.60
2019-01-30T06:56:29.479Z,65.48
2019-01-30T06:57:30.348Z,65.09
2019-01-30T06:58:31.197Z,65.06
2019-01-30T06:59:32.054Z,64.97
2019-01-30T07:00:33.041Z,65.06
2019-01-30T07:01:33.936Z,65.06
2019-01-30T07:02:34.835Z,65.04
2019-01-30T07:03:35.714Z,64.91
2019-01-30T07:04:36.569Z,64.72
2019-01-30T07:05:37.426Z,64.36
2019-01-30T07:06:38.324Z,63.99
2019-01-30T07:07:39.187Z,64.21
2019-01-30T07:08:40.061Z,64.31
2019-01-30T07:09:40.918Z,64.65
2019-01-30T07:10:41.816Z,64.03
2019-01-30T07:11:42.691Z,64.98
2019-01-30T07:12:43.561Z,64.90
2019-01-30T07:13:44.431Z,65.15
2019-01-30T07:14:45.277Z,65.21
2019-01-30T07:15:46.172Z,65.16
2019-01-30T07:16:47.056Z,65.25
2019-01-30T07:17:47.917Z,65.08
2019-01-30T07:18:48.797Z,64.87
2019-01-30T07:19:49.653Z,64.65
2019-01-30T07:20:50.516Z,64.54
2019-01-30T07:21:51.415Z,64.46
2019-01-30T07:22:52.276Z,64.52
2019-01-30T07:23:53.137Z,64.77
2019-01-30T07:24:54.028Z,64.43
2019-01-30T07:25:54.876Z,64.36
2019-01-30T07:26:55.779Z,64.39
2019-01-30T07:27:56.643Z,64.37
2019-01-30T07:28:57.502Z,64.32
2019-01-30T07:30:04.508Z,64.46
2019-01-30T07:31:05.378Z,64.42
2019-01-30T07:32:06.275Z,64.09
2019-01-30T07:33:07.139Z,64.79
2019-01-30T07:34:08.007Z,65.41
2019-01-30T07:35:08.859Z,65.39
2019-01-30T07:36:09.721Z,65.16
2019-01-30T07:37:10.621Z,65.15
2019-01-30T07:38:11.496Z,65.06
2019-01-30T07:39:12.391Z,64.90
2019-01-30T07:40:14.457Z,64.79
2019-01-30T07:41:15.319Z,64.89
2019-01-30T07:42:16.311Z,64.46
2019-01-30T07:43:17.167Z,64.50
2019-01-30T07:44:18.023Z,64.49
2019-01-30T07:45:22.337Z,64.89
2019-01-30T07:46:23.427Z,65.07
2019-01-30T07:47:24.663Z,65.33
2019-01-30T07:48:27.327Z,65.15
2019-01-30T07:49:28.308Z,65.46
2019-01-30T07:50:29.171Z,65.68
2019-01-30T07:51:30.025Z,66.11
2019-01-30T07:52:32.717Z,66.72
2019-01-30T07:53:33.789Z,67.45
2019-01-30T07:54:34.657Z,67.31
2019-01-30T07:55:37.652Z,67.18
2019-01-30T07:56:38.898Z,67.32
2019-01-30T07:57:40.437Z,65.96
2019-01-30T07:58:41.881Z,66.72
2019-01-30T07:59:50.541Z,65.51
2019-01-30T08:00:51.779Z,66.21
2019-01-30T08:01:52.679Z,65.50
2019-01-30T08:02:53.837Z,66.41
2019-01-30T08:03:54.937Z,65.35
2019-01-30T08:04:55.830Z,66.14
2019-01-30T08:05:56.654Z,66.69
2019-01-30T08:06:57.506Z,67.10
2019-01-30T08:07:58.585Z,67.13
2019-01-30T08:08:59.493Z,66.93
2019-01-30T08:10:00.418Z,66.29
2019-01-30T08:11:01.317Z,67.10
2019-01-30T08:12:02.169Z,67.25
2019-01-30T08:13:03.432Z,67.96
2019-01-30T08:14:04.381Z,68.56
2019-01-30T08:15:09.003Z,68.42
2019-01-30T08:16:09.969Z,68.70
2019-01-30T08:17:10.848Z,68.57
2019-01-30T08:18:11.687Z,68.25
2019-01-30T08:19:12.563Z,68.16
2019-01-30T08:20:15.607Z,67.91
2019-01-30T08:21:16.544Z,67.51
2019-01-30T08:22:17.394Z,67.24
2019-01-30T08:23:18.745Z,65.37
2019-01-30T08:24:19.784Z,66.24
2019-01-30T08:25:21.891Z,66.86
2019-01-30T08:26:25.556Z,66.98
2019-01-30T08:27:25.741Z,67.25
2019-01-30T08:28:26.961Z,66.77
2019-01-30T08:29:27.944Z,67.09
2019-01-30T08:30:28.934Z,67.26
2019-01-30T08:31:30.311Z,67.41
2019-01-30T08:32:31.359Z,67.14
2019-01-30T08:33:32.295Z,67.27
2019-01-30T08:34:33.276Z,67.37
2019-01-30T08:35:34.143Z,67.29
2019-01-30T08:36:35.031Z,67.58
2019-01-30T08:37:38.404Z,67.30
2019-01-30T08:38:38.671Z,66.97
2019-01-30T08:39:39.532Z,66.99
2019-01-30T08:40:40.415Z,67.13
2019-01-30T08:41:41.314Z,67.43
2019-01-30T08:42:42.169Z,67.28
2019-01-30T08:43:43.030Z,66.78
2019-01-30T08:44:47.013Z,67.39
2019-01-30T08:45:46.661Z,67.15
2019-01-30T08:46:47.623Z,67.03
2019-01-30T08:47:48.491Z,66.82
2019-01-30T08:48:49.337Z,66.63
2019-01-30T08:49:50.209Z,66.28
2019-01-30T08:50:51.075Z,66.79
2019-01-30T08:51:51.968Z,66.67
2019-01-30T08:52:52.831Z,66.55
2019-01-30T08:53:53.683Z,66.39
2019-01-30T08:54:54.655Z,65.98
2019-01-30T08:55:55.633Z,65.12
2019-01-30T08:56:56.586Z,66.17
2019-01-30T08:57:57.498Z,65.93
2019-01-30T08:58:58.458Z,65.90
2019-01-30T08:59:59.316Z,65.91
2019-01-30T09:01:00.230Z,65.69
2019-01-30T09:02:01.111Z,66.10
2019-01-30T09:03:01.967Z,64.60
2019-01-30T09:04:02.943Z,65.03
2019-01-30T09:05:06.583Z,65.44
2019-01-30T09:06:07.461Z,65.37
2019-01-30T09:07:08.429Z,65.78
2019-01-30T09:08:09.302Z,65.63
2019-01-30T09:09:10.209Z,65.91
2019-01-30T09:10:13.986Z,65.70
2019-01-30T09:11:14.899Z,66.00
2019-01-30T09:12:15.730Z,66.15
2019-01-30T09:13:16.580Z,65.92
2019-01-30T09:14:17.433Z,65.83
2019-01-30T09:15:20.439Z,65.71
2019-01-30T09:16:21.305Z,65.63
2019-01-30T09:17:22.152Z,65.16
2019-01-30T09:18:23.017Z,65.42
2019-01-30T09:19:23.880Z,65.50
2019-01-30T09:20:24.895Z,65.29
2019-01-30T09:21:25.763Z,65.67
2019-01-30T09:22:26.617Z,65.28
2019-01-30T09:23:27.475Z,65.35
2019-01-30T09:24:28.343Z,65.51
2019-01-30T09:25:29.423Z,65.52
2019-01-30T09:26:30.284Z,65.73
2019-01-30T09:27:31.159Z,65.71
2019-01-30T09:28:32.015Z,65.58
2019-01-30T09:29:32.871Z,65.51
2019-01-30T09:30:35.859Z,65.65
2019-01-30T09:31:36.733Z,65.55
2019-01-30T09:32:37.607Z,65.86
2019-01-30T09:33:38.453Z,65.52
2019-01-30T09:34:39.329Z,65.55
2019-01-30T09:35:40.239Z,65.50
2019-01-30T09:36:41.061Z,65.28
2019-01-30T09:37:41.920Z,64.91
2019-01-30T09:38:42.793Z,65.55
2019-01-30T09:39:43.657Z,66.02
2019-01-30T09:40:44.643Z,65.81
2019-01-30T09:41:45.472Z,65.47
2019-01-30T09:42:46.394Z,65.47
2019-01-30T09:43:47.297Z,65.38
2019-01-30T09:44:48.159Z,65.42
2019-01-30T09:45:49.065Z,65.68
2019-01-30T09:46:49.894Z,64.12
2019-01-30T09:47:50.762Z,64.86
2019-01-30T09:48:51.623Z,64.80
2019-01-30T09:49:52.665Z,64.61
2019-01-30T09:50:53.544Z,65.84
2019-01-30T09:51:54.373Z,65.78
2019-01-30T09:52:55.237Z,65.76
2019-01-30T09:53:57.635Z,65.65
2019-01-30T09:54:58.671Z,65.43
2019-01-30T09:55:59.668Z,65.78
2019-01-30T09:57:00.506Z,65.83
2019-01-30T09:58:01.405Z,65.89
2019-01-30T09:59:02.274Z,65.62
2019-01-30T10:00:09.962Z,65.87
2019-01-30T10:01:10.828Z,65.84
2019-01-30T10:02:11.687Z,66.07
2019-01-30T10:03:12.596Z,65.93
2019-01-30T10:04:13.461Z,66.19
2019-01-30T10:05:14.322Z,65.98
2019-01-30T10:06:15.192Z,65.75
2019-01-30T10:07:16.051Z,65.66
2019-01-30T10:08:16.958Z,65.73
2019-01-30T10:09:17.804Z,65.40
2019-01-30T10:10:24.860Z,65.63
2019-01-30T10:11:25.717Z,65.74
2019-01-30T10:12:26.594Z,66.12
2019-01-30T10:13:27.497Z,65.79
2019-01-30T10:14:28.361Z,65.69
2019-01-30T10:15:36.151Z,65.70
2019-01-30T10:16:37.058Z,65.42
2019-01-30T10:17:38.030Z,66.38
2019-01-30T10:18:38.924Z,66.68
2019-01-30T10:19:41.808Z,67.34
2019-01-30T10:20:44.759Z,67.76
2019-01-30T10:21:45.720Z,68.08
2019-01-30T10:22:46.676Z,68.45
2019-01-30T10:23:47.580Z,68.58
2019-01-30T10:24:50.475Z,68.62
2019-01-30T10:25:51.296Z,68.33
2019-01-30T10:26:52.155Z,68.30
2019-01-30T10:27:53.004Z,68.29
2019-01-30T10:28:53.867Z,69.00
2019-01-30T10:29:54.722Z,68.78
2019-01-30T10:30:55.644Z,68.91
2019-01-30T10:31:56.500Z,68.91
2019-01-30T10:32:57.359Z,69.05
2019-01-30T10:33:58.221Z,69.60
2019-01-30T10:34:59.078Z,69.51
2019-01-30T10:35:59.987Z,69.61
2019-01-30T10:37:03.565Z,69.30
2019-01-30T10:38:03.815Z,69.45
2019-01-30T10:39:07.092Z,69.51
2019-01-30T10:40:14.622Z,69.64
2019-01-30T10:41:15.532Z,69.58
2019-01-30T10:42:16.400Z,70.44
2019-01-30T10:43:17.257Z,70.46
2019-01-30T10:44:18.130Z,70.28
2019-01-30T10:45:18.978Z,70.15
2019-01-30T10:46:19.881Z,69.61
2019-01-30T10:47:20.754Z,69.93
2019-01-30T10:48:21.711Z,69.99
2019-01-30T10:49:22.576Z,70.00
2019-01-30T10:50:26.733Z,69.94
2019-01-30T10:51:27.608Z,69.61
2019-01-30T10:52:28.464Z,68.21
2019-01-30T10:53:29.370Z,69.42
2019-01-30T10:54:30.232Z,70.04
2019-01-30T10:55:33.520Z,69.78
2019-01-30T10:56:34.396Z,68.89
2019-01-30T10:57:35.262Z,69.75
2019-01-30T10:58:36.143Z,69.80
2019-01-30T10:59:37.002Z,69.66
2019-01-30T11:00:44.162Z,69.42
2019-01-30T11:01:45.054Z,69.58
2019-01-30T11:02:46.533Z,69.52
2019-01-30T11:03:56.803Z,69.79
2019-01-30T11:04:50.356Z,69.93
2019-01-30T11:05:51.218Z,69.34
2019-01-30T11:06:52.066Z,69.49
2019-01-30T11:07:52.918Z,69.59
2019-01-30T11:08:53.778Z,69.34
2019-01-30T11:09:54.668Z,69.68
2019-01-30T11:10:55.663Z,69.48
2019-01-30T11:11:58.456Z,69.51
2019-01-30T11:12:59.286Z,69.34
2019-01-30T11:14:00.140Z,69.22
2019-01-30T11:15:02.838Z,69.33
2019-01-30T11:16:03.933Z,69.02
2019-01-30T11:17:04.794Z,68.96
2019-01-30T11:18:07.466Z,69.11
2019-01-30T11:19:08.440Z,69.37
2019-01-30T11:20:12.340Z,69.42
2019-01-30T11:21:13.196Z,69.25
2019-01-30T11:22:14.053Z,69.18
2019-01-30T11:23:14.917Z,69.63
2019-01-30T11:24:24.759Z,69.48
2019-01-30T11:29:03.202Z,69.23
2019-01-30T11:30:07.516Z,69.85
2019-01-30T11:31:08.512Z,67.88
2019-01-30T11:32:09.397Z,66.76
2019-01-30T11:33:10.235Z,68.53
2019-01-30T11:34:11.090Z,70.34
2019-01-30T11:35:11.954Z,70.68
2019-01-30T11:36:12.854Z,70.66
2019-01-30T11:37:13.731Z,70.44
2019-01-30T11:38:16.112Z,70.25
2019-01-30T11:39:17.003Z,70.14
2019-01-30T11:40:21.448Z,69.70
2019-01-30T11:41:22.354Z,69.77
2019-01-30T11:42:24.142Z,69.25
2019-01-30T11:43:25.018Z,70.01
2019-01-30T11:44:27.882Z,69.48
2019-01-30T11:45:31.789Z,70.41
2019-01-30T11:46:32.686Z,70.03
2019-01-30T11:47:34.077Z,70.14
2019-01-30T11:48:34.938Z,69.70
2019-01-30T11:49:35.911Z,69.74
2019-01-30T11:50:37.860Z,69.14
2019-01-30T11:51:38.779Z,69.15
2019-01-30T11:52:39.670Z,70.04
2019-01-30T11:53:40.524Z,69.44
2019-01-30T11:54:41.421Z,69.82
2019-01-30T11:55:42.334Z,69.91
2019-01-30T11:56:43.241Z,69.45
2019-01-30T11:57:44.110Z,69.45
2019-01-30T11:58:45.011Z,69.42
2019-01-30T11:59:45.881Z,69.14
2019-01-30T12:00:48.676Z,68.48
2019-01-30T12:01:49.645Z,68.42
2019-01-30T12:02:50.524Z,68.53
2019-01-30T12:03:51.376Z,68.73
2019-01-30T12:04:52.266Z,68.61
2019-01-30T12:05:53.260Z,68.59
2019-01-30T12:06:54.133Z,68.09
2019-01-30T12:07:55.010Z,68.70
2019-01-30T12:08:55.871Z,68.79
2019-01-30T12:09:56.750Z,69.95
2019-01-30T12:10:57.732Z,69.66
2019-01-30T12:11:58.563Z,69.21
2019-01-30T12:12:59.426Z,67.12
2019-01-30T12:14:00.298Z,67.99
2019-01-30T12:15:01.154Z,68.09
2019-01-30T12:16:02.055Z,69.26
2019-01-30T12:17:02.918Z,69.74
2019-01-30T12:18:03.918Z,69.55
2019-01-30T12:19:04.789Z,69.37
2019-01-30T12:20:08.987Z,68.93
2019-01-30T12:21:09.888Z,69.29
2019-01-30T12:22:10.850Z,68.59
2019-01-30T12:23:11.714Z,69.09
2019-01-30T12:24:12.576Z,68.91
2019-01-30T12:25:15.830Z,68.63
2019-01-30T12:26:16.726Z,68.34
2019-01-30T12:27:17.597Z,68.33
2019-01-30T12:28:18.458Z,68.66
2019-01-30T12:29:19.317Z,68.80
2019-01-30T12:30:27.659Z,68.52
2019-01-30T12:31:28.694Z,68.50
2019-01-30T12:32:29.547Z,68.90
2019-01-30T12:33:30.440Z,68.62
2019-01-30T12:34:31.304Z,67.88
2019-01-30T12:35:34.524Z,68.23
2019-01-30T12:36:35.388Z,67.87
2019-01-30T12:37:36.268Z,67.72
2019-01-30T12:38:37.138Z,68.05
2019-01-30T12:39:38.042Z,68.50
2019-01-30T12:40:38.926Z,68.09
2019-01-30T12:41:39.785Z,69.62
2019-01-30T12:42:40.946Z,69.15
2019-01-30T12:43:41.834Z,69.44
2019-01-30T12:44:42.688Z,69.06
2019-01-30T12:45:44.575Z,68.75
2019-01-30T12:46:45.437Z,68.27
2019-01-30T12:47:46.302Z,67.94
2019-01-30T12:48:48.864Z,66.81
2019-01-30T12:49:50.030Z,67.39
2019-01-30T12:50:50.968Z,67.85
2019-01-30T12:51:51.828Z,68.16
2019-01-30T12:52:52.686Z,68.33
2019-01-30T12:53:53.540Z,68.06
2019-01-30T12:54:54.425Z,68.66
2019-01-30T12:55:55.312Z,68.74
2019-01-30T12:56:56.178Z,68.48
2019-01-30T12:57:57.151Z,68.25
2019-01-30T12:58:58.017Z,68.25
2019-01-30T12:59:58.879Z,67.89
2019-01-30T13:00:59.738Z,67.67
2019-01-30T13:02:00.598Z,68.44
2019-01-30T13:03:01.495Z,68.36
2019-01-30T13:04:02.452Z,68.34
2019-01-30T13:05:06.719Z,68.26
2019-01-30T13:06:07.582Z,68.38
2019-01-30T13:07:08.544Z,67.97
2019-01-30T13:08:09.416Z,67.87
2019-01-30T13:09:10.289Z,68.03
2019-01-30T13:10:11.144Z,68.29
2019-01-30T13:11:12.001Z,68.30
2019-01-30T13:12:12.863Z,68.27
2019-01-30T13:13:13.764Z,68.35
2019-01-30T13:14:16.524Z,68.44